Time;durP1;ratioP1;P1;durP2;ratioP2;P2;SDS_P1;SDS_P2;PMS_P1;PMS_P2;Temp;Humidity;BMP_temperature;BMP_pressure;BME280_temperature;BME280_humidity;BME280_pressure;Samples;Min_cycle;Max_cycle;Signal;HPM_P1;HPM_P2
2023/01/04 00:01:54;;;;;;;0.20;0.10;;;;;;;2.31;100.00;98064.84;5059398;28;20147;-43
2023/01/04 00:04:38;;;;;;;0.13;0.10;;;;;;;2.50;100.00;98101.94;5071890;28;20039;-42
2023/01/04 00:07:41;;;;;;;0.20;0.20;;;;;;;2.35;100.00;98107.50;5069870;28;20036;-43
2023/01/04 00:10:25;;;;;;;0.20;0.20;;;;;;;2.35;100.00;98115.19;5070101;28;20123;-42
2023/01/04 00:13:10;;;;;;;0.10;0.10;;;;;;;2.24;100.00;98106.94;5085716;28;20044;-42
2023/01/04 00:15:54;;;;;;;0.20;0.20;;;;;;;2.28;100.00;98123.91;5080212;28;20039;-42
2023/01/04 00:18:38;;;;;;;0.77;0.52;;;;;;;2.38;100.00;98133.03;5070380;28;20040;-41
2023/01/04 00:21:12;;;;;;;0.10;0.10;;;;;;;2.29;100.00;98111.94;5086093;28;20135;-41
2023/01/04 00:23:57;;;;;;;0.45;0.20;;;;;;;2.54;100.00;98175.34;5074060;28;20508;-43
2023/01/04 00:26:25;;;;;;;1.30;0.57;;;;;;;2.33;100.00;98155.41;5072172;28;20143;-41
2023/01/04 00:29:02;;;;;;;1.85;1.08;;;;;;;2.31;100.00;98190.47;5085962;28;20041;-43
2023/01/04 00:31:46;;;;;;;1.77;1.33;;;;;;;2.23;100.00;98205.22;5077466;28;20047;-43
2023/01/04 00:34:14;;;;;;;1.75;1.15;;;;;;;2.12;100.00;98227.72;5100326;27;20044;-44
2023/01/04 00:36:58;;;;;;;2.70;1.40;;;;;;;1.98;100.00;98242.59;5077636;28;20557;-43
2023/01/04 00:40:20;;;;;;;4.00;1.40;;;;;;;1.85;100.00;98249.69;5070458;28;20037;-43
2023/01/04 00:43:04;;;;;;;4.53;1.85;;;;;;;1.79;100.00;98257.50;5091255;28;20054;-44
2023/01/04 00:46:26;;;;;;;3.53;1.95;;;;;;;1.73;100.00;98262.75;5078065;28;20040;-45
2023/01/04 00:48:52;;;;;;;3.85;1.85;;;;;;;1.44;100.00;98253.16;5079161;28;20077;-44
2023/01/04 00:51:18;;;;;;;3.65;2.00;;;;;;;1.61;100.00;98284.38;5056814;28;20524;-42
2023/01/04 00:54:03;;;;;;;2.67;1.73;;;;;;;1.58;100.00;98294.69;5042092;28;20583;-43
2023/01/04 00:56:30;;;;;;;3.40;2.00;;;;;;;1.58;100.00;98306.63;5072908;28;20051;-43
2023/01/04 00:58:57;;;;;;;5.63;2.22;;;;;;;1.60;100.00;98317.69;5095701;28;20040;-43
2023/01/04 01:02:00;;;;;;;5.13;1.98;;;;;;;1.58;100.00;98324.56;5080637;28;20055;-42
2023/01/04 01:04:44;;;;;;;3.55;1.85;;;;;;;1.46;100.00;98328.22;5082212;28;20039;-42
2023/01/04 01:07:28;;;;;;;3.53;2.13;;;;;;;1.46;100.00;98343.59;5086903;28;20039;-42
2023/01/04 01:09:54;;;;;;;3.28;1.90;;;;;;;1.39;100.00;98352.25;5062504;28;20098;-43
2023/01/04 01:12:39;;;;;;;5.53;1.85;;;;;;;1.31;100.00;98361.78;5089620;28;20603;-44
2023/01/04 01:15:23;;;;;;;3.78;2.05;;;;;;;1.23;100.00;98361.09;5084773;28;20043;-43
2023/01/04 01:18:08;;;;;;;3.53;1.85;;;;;;;1.15;100.00;98363.78;5082959;28;20040;-44
2023/01/04 01:21:10;;;;;;;4.50;1.85;;;;;;;1.10;100.00;98372.44;5083034;28;20043;-42
2023/01/04 01:24:14;;;;;;;3.83;2.05;;;;;;;1.11;100.00;98386.91;5101534;28;20039;-42
2023/01/04 01:26:59;;;;;;;5.45;2.13;;;;;;;0.94;100.00;98371.84;5101413;28;20085;-42
2023/01/04 01:30:02;;;;;;;2.67;1.50;;;;;;;1.08;100.00;98395.50;5084163;28;20040;-43
2023/01/04 01:32:48;;;;;;;4.15;1.67;;;;;;;1.06;100.00;98407.44;5105802;28;20602;-43
2023/01/04 01:35:41;;;;;;;2.78;1.60;;;;;;;1.05;100.00;98422.81;5103976;28;20042;-44
2023/01/04 01:38:28;;;;;;;3.15;1.58;;;;;;;0.90;100.00;98397.50;5083088;28;20503;-42
2023/01/04 01:41:12;;;;;;;4.18;1.83;;;;;;;1.01;100.00;98424.59;5103800;28;20040;-42
2023/01/04 01:43:58;;;;;;;2.85;1.58;;;;;;;0.97;100.00;98422.13;5088183;28;20040;-43
2023/01/04 01:46:52;;;;;;;2.72;1.70;;;;;;;0.93;100.00;98441.81;5094139;28;20066;-42
2023/01/04 01:49:55;;;;;;;3.10;1.80;;;;;;;0.89;100.00;98450.38;5111897;28;20039;-42
2023/01/04 01:52:40;;;;;;;2.72;1.70;;;;;;;0.84;100.00;98467.50;5099376;28;20028;-42
2023/01/04 01:55:24;;;;;;;3.35;1.80;;;;;;;0.62;100.00;98438.88;5078454;28;20471;-43
2023/01/04 01:58:11;;;;;;;2.67;1.80;;;;;;;0.75;100.00;98472.75;5097188;28;20047;-42
2023/01/04 02:00:55;;;;;;;2.80;1.75;;;;;;;0.71;100.00;98495.00;5090204;28;20048;-43
2023/01/04 02:03:58;;;;;;;5.50;1.80;;;;;;;0.71;100.00;98509.50;5098622;28;20040;-43
2023/01/04 02:07:05;;;;;;;4.25;2.17;;;;;;;0.69;100.00;98509.50;5090136;28;20032;-42
2023/01/04 02:09:53;;;;;;;3.50;1.70;;;;;;;0.67;100.00;98525.75;5071473;28;20483;-43
2023/01/04 02:12:21;;;;;;;3.50;1.70;;;;;;;0.59;100.00;98517.31;5096983;28;20084;-43
2023/01/04 02:15:24;;;;;;;3.33;1.80;;;;;;;0.65;100.00;98540.25;5083060;28;20039;-42
2023/01/04 02:18:14;;;;;;;4.47;2.38;;;;;;;0.46;100.00;98519.22;5104089;28;20036;-42
2023/01/04 02:20:49;;;;;;;5.13;2.40;;;;;;;0.68;100.00;98547.91;5075390;28;20641;-41
2023/01/04 02:23:43;;;;;;;5.03;2.03;;;;;;;0.62;100.00;98561.63;5066564;28;20036;-43
2023/01/04 02:26:40;;;;;;;6.05;1.98;;;;;;;0.60;100.00;98565.03;5086728;28;20577;-43
2023/01/04 02:29:43;;;;;;;3.83;2.25;;;;;;;0.54;100.00;98568.50;5084156;28;20083;-42
2023/01/04 02:32:53;;;;;;;4.47;2.10;;;;;;;0.50;100.00;98566.88;5108439;28;20567;-45
2023/01/04 02:35:56;;;;;;;3.13;2.22;;;;;;;0.50;100.00;98586.47;5106015;28;20043;-43
2023/01/04 02:38:59;;;;;;;3.97;2.60;;;;;;;0.47;100.00;98601.88;5096340;28;20400;-43
2023/01/04 02:42:03;;;;;;;4.90;2.30;;;;;;;0.46;100.00;98610.38;5089667;28;20127;-42
2023/01/04 02:45:25;;;;;;;3.35;2.20;;;;;;;0.43;100.00;98613.81;5082579;28;20160;-43
2023/01/04 02:51:13;;;;;;;3.80;2.15;;;;;;;0.41;100.00;98638.56;5094575;28;20043;-41
2023/01/04 02:53:40;;;;;;;3.92;2.28;;;;;;;0.33;100.00;98630.97;5108007;28;20585;-42
2023/01/04 02:56:55;;;;;;;3.60;2.45;;;;;;;0.49;100.00;98652.09;5089247;28;20388;-42
2023/01/04 02:59:58;;;;;;;3.03;2.05;;;;;;;0.47;100.00;98655.56;5002577;28;20057;-43
2023/01/04 03:06:22;;;;;;;5.78;2.45;;;;;;;0.37;100.00;98685.44;5017366;28;20044;-42
2023/01/04 03:09:44;;;;;;;6.05;2.35;;;;;;;0.33;100.00;98686.34;5008658;28;20045;-43
2023/01/04 03:12:31;;;;;;;2.20;1.45;;;;;;;0.15;100.00;98666.94;5006811;28;20410;-43
2023/01/04 03:15:17;;;;;;;3.28;2.20;;;;;;;0.32;100.00;98705.94;5002286;28;20045;-43
2023/01/04 03:18:13;;;;;;;5.32;2.00;;;;;;;0.36;100.00;98705.09;4994263;28;20174;-42
2023/01/04 03:20:58;;;;;;;5.85;1.75;;;;;;;0.39;100.00;98717.81;4998285;28;20042;-42
2023/01/04 03:36:53;;;;;;;3.88;1.90;;;;;;;0.38;100.00;98738.28;5014437;28;20036;-42
2023/01/04 03:49:44;;;;;;;3.45;1.60;;;;;;;0.41;100.00;98777.47;5069484;28;20054;-41
2023/01/04 03:52:12;;;;;;;2.47;1.50;;;;;;;0.44;100.00;98774.03;5086134;28;20039;-43
2023/01/04 03:54:58;;;;;;;2.22;1.60;;;;;;;0.45;100.00;98772.31;5088974;28;20069;-41
2023/01/04 03:57:43;;;;;;;3.65;1.92;;;;;;;0.44;100.00;98781.69;5091661;28;20164;-42
2023/01/04 04:00:28;;;;;;;2.15;1.40;;;;;;;0.47;100.00;98794.47;5088273;28;20040;-42
2023/01/04 04:03:06;;;;;;;2.70;1.67;;;;;;;0.45;100.00;98793.63;5088255;28;20465;-42
2023/01/04 04:08:26;;;;;;;3.35;1.75;;;;;;;0.22;100.00;98757.16;5094631;28;20467;-41
2023/01/04 04:11:29;;;;;;;6.82;2.03;;;;;;;0.56;100.00;98821.66;5102307;28;20040;-41
2023/01/04 04:14:32;;;;;;;4.57;1.90;;;;;;;0.60;100.00;98831.00;5093920;27;20036;-42
2023/01/04 04:17:19;;;;;;;3.55;1.60;;;;;;;0.58;100.00;98830.16;5089160;28;20081;-43
2023/01/04 04:20:22;;;;;;;2.13;1.35;;;;;;;0.60;100.00;98844.63;5079512;28;20040;-42
2023/01/04 04:22:48;;;;;;;3.65;1.90;;;;;;;0.58;100.00;98848.91;5097943;28;20044;-43
2023/01/04 04:25:16;;;;;;;2.53;1.50;;;;;;;0.59;100.00;98854.88;5104651;28;20043;-41
2023/01/04 04:27:42;;;;;;;4.22;2.10;;;;;;;0.56;100.00;98860.00;5094829;28;20051;-43
2023/01/04 04:30:45;;;;;;;2.15;1.55;;;;;;;0.52;100.00;98869.44;5102776;28;20503;-42
2023/01/04 04:33:30;;;;;;;3.60;1.58;;;;;;;0.54;100.00;98875.38;5109385;28;20035;-44
2023/01/04 04:36:32;;;;;;;2.50;1.40;;;;;;;0.52;100.00;98868.56;5097245;28;20078;-43
2023/01/04 04:38:58;;;;;;;3.38;1.60;;;;;;;0.54;100.00;98887.28;5070535;28;20615;-42
2023/01/04 04:42:01;;;;;;;3.58;1.60;;;;;;;0.51;100.00;98882.22;5086636;28;20035;-42
2023/01/04 04:44:46;;;;;;;3.58;1.83;;;;;;;0.29;100.00;98869.56;5105050;28;20052;-42
2023/01/04 04:47:12;;;;;;;3.65;1.90;;;;;;;0.31;100.00;98902.81;5088063;28;20043;-42
2023/01/04 04:49:56;;;;;;;5.55;1.63;;;;;;;0.05;100.00;98877.41;5102877;28;20431;-41
2023/01/04 04:53:00;;;;;;;4.10;1.60;;;;;;;0.19;100.00;98915.66;5084998;28;20416;-42
2023/01/04 04:56:21;;;;;;;2.35;1.27;;;;;;;0.15;100.00;98917.38;5104951;28;20491;-43
2023/01/04 04:59:43;;;;;;;2.75;1.42;;;;;;;0.13;100.00;98933.56;5102668;28;20035;-43
2023/01/04 05:02:09;;;;;;;3.47;1.38;;;;;;;0.06;100.00;98929.31;5108697;28;20047;-43
2023/01/04 05:04:53;;;;;;;3.15;1.20;;;;;;;0.07;100.00;98931.03;5124304;27;20043;-43
2023/01/04 05:07:21;;;;;;;3.65;1.23;;;;;;;0.10;100.00;98936.13;5091678;28;20035;-43
2023/01/04 05:10:25;;;;;;;2.33;1.42;;;;;;;0.06;100.00;98940.41;5067296;28;20040;-44
2023/01/04 05:13:28;;;;;;;2.97;1.48;;;;;;;-0.02;100.00;98945.56;5082271;28;20152;-45
2023/01/04 05:16:13;;;;;;;3.03;1.50;;;;;;;0.03;100.00;98963.41;5104050;28;20031;-42
2023/01/04 05:19:16;;;;;;;7.80;3.00;;;;;;;0.06;100.00;98962.53;5093074;28;20047;-43
2023/01/04 05:22:00;;;;;;;3.10;1.30;;;;;;;0.05;100.00;98971.94;5086868;28;20418;-44
2023/01/04 05:25:03;;;;;;;3.38;1.40;;;;;;;0.04;100.00;98985.56;5072326;28;20039;-42
2023/01/04 05:27:48;;;;;;;3.92;1.50;;;;;;;0.02;100.00;98974.47;5087514;28;20108;-42
2023/01/04 05:30:52;;;;;;;2.38;1.38;;;;;;;0.00;100.00;98981.31;5095100;28;20058;-42
2023/01/04 05:33:37;;;;;;;3.10;1.35;;;;;;;-0.04;100.00;98984.72;5094756;28;20039;-42
2023/01/04 05:36:22;;;;;;;2.00;1.23;;;;;;;-0.05;100.00;98985.56;5106840;28;20083;-42
2023/01/04 05:39:07;;;;;;;4.80;1.20;;;;;;;-0.07;100.00;98985.59;5108300;27;20047;-42
2023/01/04 05:44:37;;;;;;;3.50;1.40;;;;;;;-0.53;100.00;98933.81;5077927;28;20036;-45
2023/01/04 05:47:21;;;;;;;2.67;1.38;;;;;;;-0.05;100.00;99018.78;5100196;28;21516;-42
2023/01/04 05:50:07;;;;;;;3.25;1.50;;;;;;;-0.08;100.00;99022.22;5092219;28;20415;-42
2023/01/04 05:52:52;;;;;;;3.10;1.42;;;;;;;-0.06;100.00;99033.28;5104302;28;20074;-41
2023/01/04 05:55:20;;;;;;;2.97;1.38;;;;;;;-0.12;100.00;99040.09;5090958;28;20488;-43
2023/01/04 05:57:45;;;;;;;2.88;1.45;;;;;;;-0.17;100.00;99044.38;5098970;28;20096;-43
2023/01/04 06:00:30;;;;;;;2.20;1.23;;;;;;;-0.15;100.00;99040.94;5110802;28;20043;-43
2023/01/04 06:03:33;;;;;;;2.17;1.30;;;;;;;-0.51;100.00;98990.78;5112209;28;20043;-43
2023/01/04 06:06:18;;;;;;;2.63;1.50;;;;;;;-0.12;100.00;99045.22;5094178;28;20066;-42
2023/01/04 06:09:06;;;;;;;2.08;1.33;;;;;;;-0.14;100.00;99047.75;5093659;28;20035;-42
2023/01/04 06:11:50;;;;;;;2.05;1.20;;;;;;;-0.13;100.00;99054.59;5110727;28;20039;-42
2023/01/04 06:14:35;;;;;;;2.22;1.30;;;;;;;-0.26;100.00;99034.19;5093517;28;20036;-42
2023/01/04 06:17:20;;;;;;;3.22;1.83;;;;;;;-0.19;100.00;99064.81;5107259;28;20055;-42
2023/01/04 06:20:08;;;;;;;3.22;1.80;;;;;;;-0.22;100.00;99059.72;5089990;28;20124;-44
2023/01/04 06:22:34;;;;;;;3.15;1.67;;;;;;;-0.53;100.00;99028.25;5100468;28;20046;-43
2023/01/04 06:25:55;;;;;;;1.73;1.10;;;;;;;-0.26;100.00;99059.72;5098388;28;20044;-42
2023/01/04 06:28:21;;;;;;;3.17;1.23;;;;;;;-0.47;100.00;99027.38;5084991;28;20115;-43
2023/01/04 06:31:06;;;;;;;3.80;1.30;;;;;;;-0.23;100.00;99081.00;5073313;28;20036;-45
2023/01/04 06:34:09;;;;;;;3.25;1.63;;;;;;;-0.56;100.00;99025.69;5079320;28;20045;-42
2023/01/04 06:37:13;;;;;;;3.47;1.50;;;;;;;-0.15;100.00;99094.59;5091667;28;20424;-42
2023/01/04 06:39:41;;;;;;;2.15;1.00;;;;;;;-0.26;100.00;99088.63;5091181;28;20097;-42
2023/01/04 06:42:45;;;;;;;3.35;1.42;;;;;;;-0.24;100.00;99096.31;5074026;28;20044;-42
2023/01/04 06:45:48;;;;;;;2.08;0.98;;;;;;;-0.26;100.00;99098.03;5073429;28;20047;-42
2023/01/04 06:48:33;;;;;;;2.33;1.42;;;;;;;-0.49;100.00;99081.00;5089498;28;20035;-46
2023/01/04 06:51:17;;;;;;;2.95;1.08;;;;;;;-0.33;100.00;99119.31;5090961;28;20500;-43
2023/01/04 06:54:01;;;;;;;4.47;1.30;;;;;;;-0.49;100.00;99095.47;5098752;28;20044;-44
2023/01/04 06:56:46;;;;;;;1.88;1.20;;;;;;;-0.31;100.00;99136.31;5087985;28;20423;-43
2023/01/04 06:59:15;;;;;;;3.00;1.30;;;;;;;-0.44;100.00;99109.94;5091001;28;20063;-44
2023/01/04 07:02:36;;;;;;;3.28;1.60;;;;;;;-0.27;100.00;99139.75;5110957;28;20570;-45
2023/01/04 07:05:21;;;;;;;2.80;1.20;;;;;;;-0.46;100.00;99109.06;5091451;28;20857;-43
2023/01/04 07:08:05;;;;;;;1.73;1.05;;;;;;;-0.30;100.00;99148.25;5094580;28;20551;-46
2023/01/04 07:11:08;;;;;;;2.22;1.02;;;;;;;-0.36;100.00;99157.59;5109733;28;20039;-43
2023/01/04 07:13:34;;;;;;;2.03;1.05;;;;;;;-0.37;100.00;99154.22;5074262;28;20829;-43
2023/01/04 07:16:18;;;;;;;2.85;1.40;;;;;;;-0.37;100.00;99159.31;5092651;28;20047;-44
2023/01/04 07:19:03;;;;;;;3.42;1.20;;;;;;;-0.39;100.00;99152.50;5093577;28;20058;-42
2023/01/04 07:22:06;;;;;;;10.60;1.30;;;;;;;-0.34;100.00;99158.44;5069328;28;20127;-42
2023/01/04 07:24:32;;;;;;;3.03;1.38;;;;;;;-0.56;100.00;99135.44;5065458;28;20430;-42
2023/01/04 07:26:59;;;;;;;3.53;1.40;;;;;;;-0.34;100.00;99182.28;5095224;28;20048;-43
2023/01/04 07:29:43;;;;;;;2.65;1.20;;;;;;;-0.38;100.00;99187.41;5093377;28;20067;-43
2023/01/04 07:32:10;;;;;;;2.92;1.50;;;;;;;-0.33;100.00;99191.66;5107461;28;20036;-42
2023/01/04 07:35:32;;;;;;;2.42;1.48;;;;;;;-0.29;100.00;99210.38;5099390;28;20062;-42
2023/01/04 07:38:35;;;;;;;2.15;1.20;;;;;;;-0.34;100.00;99199.31;5083390;28;20085;-43
2023/01/04 07:41:38;;;;;;;2.97;1.23;;;;;;;-0.37;100.00;99209.53;5105206;28;20523;-42
2023/01/04 07:44:25;;;;;;;2.05;1.35;;;;;;;-0.35;100.00;99215.47;5054226;28;20044;-43
2023/01/04 07:47:09;;;;;;;2.63;1.67;;;;;;;-0.38;100.00;99212.94;5079270;28;20048;-44
2023/01/04 07:50:12;;;;;;;2.33;1.58;;;;;;;-0.29;100.00;99216.34;5099696;28;20051;-46
2023/01/04 07:53:14;;;;;;;3.60;1.70;;;;;;;-0.31;100.00;99218.03;5089943;28;20047;-43
2023/01/04 07:55:59;;;;;;;2.50;1.63;;;;;;;-0.42;100.00;99225.69;5121658;27;20093;-42
2023/01/04 07:58:26;;;;;;;3.60;1.58;;;;;;;-0.44;100.00;99226.53;5088099;28;20507;-44
2023/01/04 08:00:51;;;;;;;3.20;1.73;;;;;;;-0.49;100.00;99223.97;5108044;28;20423;-43
2023/01/04 08:04:14;;;;;;;3.30;1.70;;;;;;;-0.50;100.00;99223.97;5106760;28;20525;-43
2023/01/04 08:07:16;;;;;;;4.35;2.25;;;;;;;-0.58;100.00;99220.56;5089842;28;20039;-43
2023/01/04 08:10:01;;;;;;;5.57;2.30;;;;;;;-0.57;100.00;99220.53;5090512;28;22188;-43
2023/01/04 08:12:27;;;;;;;3.97;2.20;;;;;;;-0.57;100.00;99235.00;5107868;28;20141;-42
2023/01/04 08:15:13;;;;;;;4.97;2.22;;;;;;;-0.56;100.00;99236.72;5079290;28;20047;-43
2023/01/04 08:18:17;;;;;;;5.53;3.10;;;;;;;-0.58;100.00;99243.53;5098495;28;20039;-43
2023/01/04 08:21:05;;;;;;;6.55;3.10;;;;;;;-0.59;100.00;99247.78;5096626;28;20134;-43
2023/01/04 08:23:32;;;;;;;6.40;3.50;;;;;;;-0.60;100.00;99258.84;5093695;28;20052;-45
2023/01/04 08:26:17;;;;;;;7.50;3.63;;;;;;;-0.57;100.00;99257.97;5107140;27;20351;-44
2023/01/04 08:29:38;;;;;;;7.47;3.55;;;;;;;-0.56;100.00;99260.53;5136160;27;20516;-44
2023/01/04 08:32:42;;;;;;;4.65;2.80;;;;;;;-0.57;100.00;99263.94;5100672;28;20116;-43
2023/01/04 08:35:26;;;;;;;6.60;3.08;;;;;;;-0.70;100.00;99239.22;5088671;28;20500;-43
2023/01/04 08:38:48;;;;;;;7.30;3.80;;;;;;;-0.63;100.00;99261.34;5086347;28;20058;-44
2023/01/04 08:41:49;;;;;;;8.27;4.07;;;;;;;-0.64;100.00;99261.38;5075163;28;20059;-42
2023/01/04 08:44:53;;;;;;;10.30;4.63;;;;;;;-0.63;100.00;99261.34;5109142;28;20127;-43
2023/01/04 08:47:37;;;;;;;9.35;4.53;;;;;;;-0.53;100.00;99259.72;5082174;28;20548;-43
2023/01/04 08:50:03;;;;;;;9.23;4.68;;;;;;;-0.50;100.00;99252.03;5088847;28;20123;-42
2023/01/04 08:52:48;;;;;;;7.40;3.90;;;;;;;-0.47;100.00;99258.00;5097282;28;20526;-43
2023/01/04 08:55:32;;;;;;;7.13;4.00;;;;;;;-0.44;100.00;99260.59;5107338;28;20054;-43
2023/01/04 08:58:36;;;;;;;7.60;4.38;;;;;;;-0.43;100.00;99266.56;5093779;28;20423;-43
2023/01/04 09:01:20;;;;;;;9.55;4.50;;;;;;;-0.38;100.00;99269.97;5087281;28;20056;-42
2023/01/04 09:04:05;;;;;;;11.45;4.90;;;;;;;-0.34;100.00;99260.59;5067070;28;20042;-43
2023/01/04 09:06:50;;;;;;;7.15;3.60;;;;;;;-0.30;100.00;99263.16;5068819;28;20040;-44
2023/01/04 09:09:52;;;;;;;6.75;3.58;;;;;;;-0.31;100.00;99265.69;5088520;28;20385;-42
2023/01/04 09:12:18;;;;;;;9.02;4.07;;;;;;;-0.40;100.00;99255.47;5096030;28;20031;-44
2023/01/04 09:15:21;;;;;;;8.05;4.50;;;;;;;-0.38;100.00;99253.78;5108778;28;20043;-43
2023/01/04 09:17:51;;;;;;;9.30;5.10;;;;;;;-0.58;100.00;99218.84;5089642;28;20114;-43
2023/01/04 09:20:35;;;;;;;7.82;4.72;;;;;;;-0.31;100.00;99265.69;5092137;28;20028;-43
2023/01/04 09:23:23;;;;;;;11.35;5.35;;;;;;;-0.29;100.00;99267.44;5095524;28;20519;-42
2023/01/04 09:26:07;;;;;;;8.90;4.78;;;;;;;-0.28;100.00;99270.84;5097196;28;20040;-43
2023/01/04 09:28:54;;;;;;;10.50;5.38;;;;;;;-0.27;100.00;99270.84;5100785;28;20040;-43
2023/01/04 09:31:38;;;;;;;9.93;4.55;;;;;;;-0.26;100.00;99275.09;5069073;28;20041;-45
2023/01/04 09:34:04;;;;;;;8.88;4.95;;;;;;;-0.27;100.00;99263.19;5071531;28;20044;-43
2023/01/04 09:36:49;;;;;;;9.52;5.25;;;;;;;-0.78;100.00;99192.41;5082443;28;20036;-44
2023/01/04 09:39:16;;;;;;;9.05;4.47;;;;;;;-0.36;100.00;99259.72;5083713;28;20577;-45
2023/01/04 09:42:02;;;;;;;9.45;4.18;;;;;;;-0.31;100.00;99266.56;5083348;28;20048;-45
2023/01/04 09:44:55;;;;;;;8.45;4.47;;;;;;;-0.28;100.00;99260.63;5083871;28;20044;-44
2023/01/04 09:47:36;;;;;;;7.38;4.57;;;;;;;-0.30;100.00;99262.31;5078221;28;20164;-43
2023/01/04 09:50:25;;;;;;;9.70;4.75;;;;;;;-0.27;100.00;99265.75;5095864;28;20055;-43
2023/01/04 09:53:15;;;;;;;8.82;4.40;;;;;;;-0.24;100.00;99264.88;5071430;28;20504;-43
2023/01/04 09:55:48;;;;;;;6.38;3.13;;;;;;;-0.52;100.00;99233.31;5080556;28;20082;-44
2023/01/04 09:58:36;;;;;;;6.90;3.53;;;;;;;-0.31;100.00;99256.34;5081704;28;20064;-43
2023/01/04 10:01:25;;;;;;;5.20;3.00;;;;;;;-0.40;100.00;99233.34;5094854;28;20549;-45
2023/01/04 10:04:35;;;;;;;4.20;2.60;;;;;;;-0.25;100.00;99253.81;5078818;28;20044;-44
2023/01/04 10:07:28;;;;;;;5.82;2.80;;;;;;;-0.42;99.12;99246.09;5093053;28;20092;-44
2023/01/04 10:09:54;;;;;;;4.80;2.83;;;;;;;-0.40;98.88;99251.22;5084884;28;20051;-43
2023/01/04 10:12:52;;;;;;;5.38;2.80;;;;;;;-0.39;98.74;99252.94;5099964;28;20050;-45
2023/01/04 10:15:33;;;;;;;6.38;3.55;;;;;;;-0.32;99.58;99256.38;5083376;28;20576;-44
2023/01/04 10:18:40;;;;;;;6.78;2.97;;;;;;;-0.30;99.19;99252.94;5084717;28;20533;-43
2023/01/04 10:21:39;;;;;;;6.13;2.67;;;;;;;-0.34;98.82;99251.25;5083902;28;20500;-44
2023/01/04 10:24:14;;;;;;;6.35;3.38;;;;;;;-0.40;98.42;99252.91;5084263;28;20123;-52
2023/01/04 10:27:00;;;;;;;6.28;3.05;;;;;;;-0.47;98.10;99245.25;5081730;28;20042;-43
2023/01/04 10:30:02;;;;;;;6.00;3.08;;;;;;;-0.46;98.43;99241.84;5114985;27;20043;-44
2023/01/04 10:33:07;;;;;;;7.65;3.40;;;;;;;-0.37;98.72;99246.13;5089540;28;20045;-44
2023/01/04 10:35:51;;;;;;;5.60;3.15;;;;;;;-0.37;98.85;99243.59;5084800;28;20089;-44
2023/01/04 10:38:38;;;;;;;9.20;4.03;;;;;;;-0.34;98.96;99233.38;5082995;28;20117;-43
2023/01/04 10:41:10;;;;;;;7.47;3.40;;;;;;;-0.34;99.13;99227.41;5089470;28;20130;-42
2023/01/04 10:44:02;;;;;;;;;;;;;;;-0.34;98.98;99235.06;5068321;28;20071;-43
2023/01/04 10:46:47;;;;;;;7.45;3.17;;;;;;;-0.30;99.66;99226.56;5069342;28;19974;-45
2023/01/04 10:49:31;;;;;;;7.18;3.53;;;;;;;-0.24;100.00;99231.69;5070202;28;20044;-43
2023/01/04 10:52:19;;;;;;;6.28;4.15;;;;;;;-0.38;100.00;99200.16;5090172;28;20032;-46
2023/01/04 10:55:23;;;;;;;7.53;4.15;;;;;;;-0.22;100.00;99224.88;5087844;28;20047;-45
2023/01/04 10:58:10;;;;;;;7.97;3.90;;;;;;;-0.21;100.00;99239.34;5090582;28;20645;-44
2023/01/04 11:01:15;;;;;;;7.30;3.70;;;;;;;-0.35;100.00;99234.22;5070890;28;20213;-42
2023/01/04 11:04:37;;;;;;;6.55;3.33;;;;;;;-0.38;99.57;99234.22;5068094;28;20044;-46
2023/01/04 11:07:26;;;;;;;6.40;3.00;;;;;;;-0.66;99.08;99195.00;5081198;28;20130;-45
2023/01/04 11:10:26;;;;;;;5.55;3.00;;;;;;;-0.43;99.31;99229.09;5055862;28;20530;-45
2023/01/04 11:13:13;;;;;;;4.95;2.60;;;;;;;-0.43;98.73;99238.47;5071008;28;20044;-43
2023/01/04 11:16:16;;;;;;;5.05;2.72;;;;;;;-0.47;98.76;99235.03;5068982;28;20105;-42
2023/01/04 11:19:03;;;;;;;4.15;2.17;;;;;;;-0.46;98.88;99244.41;5087988;28;20119;-46
2023/01/04 11:21:57;;;;;;;3.35;2.03;;;;;;;-0.75;98.45;99199.22;5097148;28;20045;-45
2023/01/04 11:24:43;;;;;;;3.30;1.77;;;;;;;-0.55;98.24;99251.19;5085220;28;20512;-45
2023/01/04 11:27:46;;;;;;;2.83;1.25;;;;;;;-0.58;97.51;99258.84;5074144;28;20388;-46
2023/01/04 11:30:33;;;;;;;2.55;1.17;;;;;;;-0.59;97.34;99250.34;5087362;28;20171;-46
2023/01/04 11:33:12;;;;;;;4.75;1.55;;;;;;;-0.55;97.36;99252.03;5088677;28;20116;-47
2023/01/04 11:36:15;;;;;;;2.08;1.27;;;;;;;-0.52;96.87;99254.59;5072219;28;20063;-45
2023/01/04 11:39:12;;;;;;;2.55;1.27;;;;;;;-0.73;96.40;99231.53;5085419;28;20044;-45
2023/01/04 11:42:21;;;;;;;1.95;1.25;;;;;;;-0.60;96.44;99258.84;5089853;28;20583;-45
2023/01/04 11:45:12;;;;;;;1.75;1.20;;;;;;;-0.56;96.36;99247.78;5075963;28;20036;-45
2023/01/04 11:47:59;;;;;;;2.47;1.20;;;;;;;-0.54;97.00;99258.00;5091756;28;20127;-44
2023/01/04 11:50:55;;;;;;;2.30;1.23;;;;;;;-0.53;97.02;99269.91;5071318;28;20042;-47
2023/01/04 11:53:58;;;;;;;2.92;1.42;;;;;;;-0.55;96.51;99257.16;5089923;28;20059;-47
2023/01/04 11:57:19;;;;;;;2.85;1.52;;;;;;;-0.57;96.40;99256.28;5089916;28;20139;-45
2023/01/04 12:00:22;;;;;;;2.15;1.10;;;;;;;-0.55;96.95;99253.75;5084110;28;20038;-46
2023/01/04 12:03:16;;;;;;;2.33;1.23;;;;;;;-0.68;95.67;99246.91;5088296;28;20511;-46
2023/01/04 12:06:21;;;;;;;2.90;1.23;;;;;;;-0.63;95.58;99242.66;5089585;28;20048;-46
2023/01/04 12:09:11;;;;;;;2.47;1.30;;;;;;;-0.58;96.04;99258.84;5086297;28;20464;-49
2023/01/04 12:12:17;;;;;;;2.38;1.20;;;;;;;-0.69;96.38;99229.88;5088512;28;20500;-46
2023/01/04 12:15:05;;;;;;;2.55;1.10;;;;;;;-0.53;96.67;99268.22;5077733;28;20051;-46
2023/01/04 12:17:45;;;;;;;1.83;1.05;;;;;;;-0.59;96.56;99254.59;5085838;28;20040;-45
2023/01/04 12:20:13;;;;;;;;;;;;;;;-0.59;96.87;99257.13;5083656;28;20044;-45
2023/01/04 12:23:15;;;;;;;2.97;1.30;;;;;;;-0.63;97.47;99253.69;5089215;28;19927;-44
2023/01/04 12:26:02;;;;;;;2.28;1.20;;;;;;;-0.82;97.82;99217.91;5054323;28;20450;-45
2023/01/04 12:29:06;;;;;;;2.72;1.00;;;;;;;-0.59;98.20;99249.47;5087118;28;20039;-45
2023/01/04 12:31:32;;;;;;;2.20;1.20;;;;;;;-0.53;98.23;99247.81;5086713;28;20040;-45
2023/01/04 12:34:24;;;;;;;1.75;1.05;;;;;;;-0.76;97.73;99226.44;5083232;28;20512;-47
2023/01/04 12:37:09;;;;;;;2.20;1.17;;;;;;;-0.59;97.66;99262.25;5067252;28;20059;-45
2023/01/04 12:40:12;;;;;;;2.35;1.33;;;;;;;-0.55;98.28;99256.28;5082253;28;20040;-44
2023/01/04 12:43:15;;;;;;;2.95;1.42;;;;;;;-0.56;98.43;99252.88;5086931;28;20143;-46
2023/01/04 12:49:54;;;;;;;1.67;1.17;;;;;;;-0.94;96.35;99255.28;5086330;28;20134;-46
2023/01/04 12:52:57;;;;;;;1.45;1.05;;;;;;;-0.97;95.62;99251.88;5067235;28;20700;-45
2023/01/04 12:55:48;;;;;;;2.70;1.40;;;;;;;-1.05;95.02;99254.41;5069807;28;20579;-43
2023/01/04 12:58:52;;;;;;;2.75;1.08;;;;;;;-1.31;92.39;99259.31;5071413;28;20036;-45
2023/01/04 13:01:36;;;;;;;1.25;0.80;;;;;;;-1.54;90.27;99254.94;5066918;28;20045;-47
2023/01/04 13:04:44;;;;;;;1.92;0.90;;;;;;;-1.74;87.98;99262.44;5098128;28;20058;-45
2023/01/04 13:07:51;;;;;;;1.95;0.90;;;;;;;-1.63;88.87;99260.84;5086905;28;20036;-44
2023/01/04 13:10:36;;;;;;;2.30;1.33;;;;;;;-1.68;88.75;99252.31;5067432;28;20036;-45
2023/01/04 13:13:23;;;;;;;3.67;0.85;;;;;;;-1.51;89.90;99249.84;5087244;28;20500;-43
2023/01/04 13:16:40;;;;;;;2.30;1.27;;;;;;;-1.34;91.48;99261.00;5071115;28;20777;-46
2023/01/04 13:19:44;;;;;;;1.58;0.77;;;;;;;-1.26;92.29;99256.84;5072572;28;20062;-49
2023/01/04 13:22:51;;;;;;;2.25;1.17;;;;;;;-1.37;91.77;99253.38;5072130;28;20047;-47
2023/01/04 13:26:13;;;;;;;1.60;0.90;;;;;;;-1.44;92.00;99247.38;5087678;28;20036;-46
2023/01/04 13:29:12;;;;;;;1.13;0.75;;;;;;;-1.73;89.27;99257.34;5088574;28;20641;-45
2023/01/04 13:32:35;;;;;;;2.80;1.30;;;;;;;-1.72;88.49;99256.50;5068319;28;20029;-45
2023/01/04 13:35:03;;;;;;;0.80;0.60;;;;;;;-1.91;88.07;99223.22;5073518;28;20040;-43
2023/01/04 13:37:38;;;;;;;1.10;0.60;;;;;;;-2.23;86.42;99185.63;5077470;28;20238;-46
2023/01/04 13:40:16;;;;;;;1.95;1.10;;;;;;;-1.98;85.84;99235.06;5068185;28;20082;-46
2023/01/04 13:43:15;;;;;;;2.28;1.05;;;;;;;-1.96;86.12;99245.25;5078874;28;20142;-45
2023/01/04 13:46:14;;;;;;;3.38;1.20;;;;;;;-1.84;86.92;99240.28;5104819;28;20400;-47
2023/01/04 13:49:35;;;;;;;2.05;1.15;;;;;;;-1.67;88.05;99250.59;5035405;28;20575;-47
2023/01/04 13:52:38;;;;;;;1.65;1.17;;;;;;;-1.55;89.01;99250.66;5049304;28;20060;-44
2023/01/04 13:55:41;;;;;;;3.53;1.40;;;;;;;-1.58;88.91;99245.56;5028582;28;20065;-44
2023/01/04 13:58:21;;;;;;;2.92;1.50;;;;;;;-1.51;89.63;99240.50;5012962;28;20037;-45